You are not logged in, Click here to log in
蘇萬那普國際機場(曼谷國際機場) BKK / VTBS 泰國曼谷以東25公里北欖府Bang Phli區
ICAO: VTBS Country: 泰國曼谷以東25公里北欖府Bang Phli區
Latitude: 13.69 Longitude: 100.75
Total Arrivals: 50 Total Departures: 50
Latest Arrival: LX180 (LSZH-VTBS)Mori. Yang Latest Departure: CI838 (VTBS-RCTP)Mori. Yang
Scenery:
METAR : VTBS 190500Z 09013KT 050V110 9999 FEW020 32/16 Q1016 NOSIG

蘇萬那普國際機場(曼谷國際機場) BKK

You are accessing this site from IP address 35.175.113.29. Virtual Airline. CMS by phpVMS.Website designed by Zumeweb and edited by Theo Bearman.
There is 0 User(s) Online: | and 6 Guest(s) Online.
All information on this site is for fight simulation purposes only. This site is for flight logging for pilots of Virtual Airline&模擬飛行論壇 FlySim only.